This is the latest recevied weather packets stored in our database for station/object KQ4UPF. If no packets are shown the sender has not sent any weather packets the latest 10 day(s).
| Time | Temp. | Humidity | Pressure | Rain* | Wind** | Luminosity | Snow |
|---|---|---|---|---|---|---|---|
| 1777752634 | 20° C | 37% | 1016.1 hPa | 0 mm | - | 920 W/m² | - |
| 1777752330 | 20° C | 34% | 1016.1 hPa | 0 mm | - | 864 W/m² | - |
| 1777752029 | 20.56° C | 34% | 1016.1 hPa | 0 mm | - | 410 W/m² | - |
| 1777751726 | 20.56° C | 34% | 1016.1 hPa | 0 mm | - | 311 W/m² | - |
| 1777751421 | 20° C | 36% | 1016.3 hPa | 0 mm | - | 923 W/m² | - |
| 1777751119 | 20.56° C | 37% | 1016.1 hPa | 0 mm | - | 211 W/m² | - |
| 1777750814 | 20° C | 33% | 1016.2 hPa | 0 mm | - | 907 W/m² | - |
| 1777750512 | 18.89° C | 40% | 1016.3 hPa | 0 mm | - | 948 W/m² | - |
| 1777750209 | 18.33° C | 37% | 1016.2 hPa | 0 mm | - | 396 W/m² | - |
| 1777749904 | 19.44° C | 36% | 1016.4 hPa | 0 mm | - | 171 W/m² | - |
| 1777749602 | 20° C | 35% | 1016.5 hPa | 0 mm | - | 1000 W/m² | - |
| 1777749299 | 20° C | 33% | 1016.5 hPa | 0 mm | - | 975 W/m² | - |
| 1777748996 | 18.89° C | 40% | 1016.5 hPa | 0 mm | - | 976 W/m² | - |
| 1777748694 | 18.89° C | 37% | 1016.5 hPa | 0 mm | - | 187 W/m² | - |
| 1777748390 | 19.44° C | 32% | 1016.5 hPa | 0 mm | - | 228 W/m² | - |
| 1777748086 | 20° C | 33% | 1016.5 hPa | 0 mm | - | 1006 W/m² | - |
| 1777747782 | 19.44° C | 40% | 1016.6 hPa | 0 mm | - | 1069 W/m² | - |
| 1777747478 | 20° C | 35% | 1016.5 hPa | 0 mm | - | 963 W/m² | - |
| 1777747175 | 19.44° C | 42% | 1016.5 hPa | 0 mm | - | 999 W/m² | - |
| 1777746871 | 19.44° C | 34% | 1016.7 hPa | 0 mm | - | 988 W/m² | - |
| 1777746566 | 19.44° C | 37% | 1016.8 hPa | 0 mm | - | 969 W/m² | - |
| 1777746262 | 19.44° C | 36% | 1016.7 hPa | 0 mm | - | 973 W/m² | - |
| 1777745958 | 18.89° C | 46% | 1016.9 hPa | 0 mm | - | 976 W/m² | - |
| 1777745657 | 18.89° C | 39% | 1017 hPa | 0 mm | - | 981 W/m² | - |
| 1777745355 | 18.89° C | 37% | 1016.9 hPa | 0 mm | - | 982 W/m² | - |
* Rain latest hour (hover to see other rain measurements)
** Current wind speed in m/s (hover to see current wind gust speed)